createdAt,value
2019-01-12T00:00:07.470Z,22.92
2019-01-12T00:01:07.448Z,22.93
2019-01-12T00:02:07.436Z,22.94
2019-01-12T00:03:07.427Z,22.93
2019-01-12T00:04:07.414Z,23.01
2019-01-12T00:05:07.416Z,23.05
2019-01-12T00:06:07.392Z,23.01
2019-01-12T00:07:07.381Z,22.93
2019-01-12T00:08:07.370Z,23.01
2019-01-12T00:09:07.360Z,22.93
2019-01-12T00:10:07.359Z,22.96
2019-01-12T00:11:07.336Z,23.04
2019-01-12T00:12:07.327Z,23.05
2019-01-12T00:13:07.354Z,23.07
2019-01-12T00:14:07.304Z,23.04
2019-01-12T00:15:07.290Z,23.01
2019-01-12T00:16:07.288Z,22.93
2019-01-12T00:17:07.270Z,22.94
2019-01-12T00:18:07.256Z,23.02
2019-01-12T00:19:07.246Z,22.92
2019-01-12T00:20:07.235Z,22.96
2019-01-12T00:21:07.231Z,22.89
2019-01-12T00:22:07.212Z,22.90
2019-01-12T00:23:07.200Z,22.96
2019-01-12T00:24:07.189Z,22.99
2019-01-12T00:25:07.180Z,23.02
2019-01-12T00:26:07.174Z,22.99
2019-01-12T00:27:07.156Z,22.94
2019-01-12T00:28:07.145Z,23.04
2019-01-12T00:29:07.134Z,23.11
2019-01-12T00:30:07.122Z,23.17
2019-01-12T00:31:07.123Z,23.14
2019-01-12T00:32:07.098Z,23.20
2019-01-12T00:33:07.088Z,23.24
2019-01-12T00:34:07.079Z,23.15
2019-01-12T00:35:07.064Z,23.11
2019-01-12T00:36:07.062Z,23.09
2019-01-12T00:37:07.043Z,23.08
2019-01-12T00:38:07.033Z,23.14
2019-01-12T00:39:07.023Z,23.02
2019-01-12T00:40:07.008Z,23.02
2019-01-12T00:41:07.005Z,23.02
2019-01-12T00:42:06.990Z,23.04
2019-01-12T00:43:06.976Z,23.07
2019-01-12T00:44:06.963Z,23.17
2019-01-12T00:45:06.953Z,23.15
2019-01-12T00:46:06.949Z,23.08
2019-01-12T00:47:06.929Z,23.19
2019-01-12T00:48:06.919Z,23.12
2019-01-12T00:49:06.909Z,23.11
2019-01-12T00:50:06.895Z,23.08
2019-01-12T00:51:06.899Z,23.09
2019-01-12T00:52:06.878Z,23.14
2019-01-12T00:53:06.862Z,23.11
2019-01-12T00:54:06.850Z,23.12
2019-01-12T00:55:06.840Z,23.12
2019-01-12T00:56:06.827Z,23.11
2019-01-12T00:57:06.825Z,23.12
2019-01-12T00:58:06.806Z,23.15
2019-01-12T00:59:06.794Z,23.09
2019-01-12T01:00:06.782Z,23.11
2019-01-12T01:01:06.770Z,23.09
2019-01-12T01:02:06.770Z,23.08
2019-01-12T01:03:06.750Z,23.09
2019-01-12T01:04:06.738Z,23.11
2019-01-12T01:05:06.728Z,23.12
2019-01-12T01:06:06.715Z,23.08
2019-01-12T01:07:06.713Z,23.04
2019-01-12T01:08:06.692Z,23.11
2019-01-12T01:09:06.682Z,23.09
2019-01-12T01:10:06.669Z,23.14
2019-01-12T01:11:06.657Z,23.08
2019-01-12T01:12:06.655Z,23.04
2019-01-12T01:13:06.638Z,23.14
2019-01-12T01:14:06.625Z,23.12
2019-01-12T01:15:06.612Z,23.11
2019-01-12T01:16:06.602Z,23.14
2019-01-12T01:17:06.598Z,23.11
2019-01-12T01:18:06.580Z,23.20
2019-01-12T01:19:06.567Z,23.15
2019-01-12T01:20:06.556Z,23.11
2019-01-12T01:21:06.544Z,23.17
2019-01-12T01:22:06.541Z,23.08
2019-01-12T01:23:06.522Z,23.09
2019-01-12T01:24:06.510Z,23.11
2019-01-12T01:25:06.499Z,23.11
2019-01-12T01:26:06.487Z,23.11
2019-01-12T01:27:06.486Z,23.12
2019-01-12T01:28:06.465Z,23.12
2019-01-12T01:29:06.454Z,23.15
2019-01-12T01:30:06.444Z,23.17
2019-01-12T01:31:06.431Z,23.12
2019-01-12T01:32:06.428Z,23.11
2019-01-12T01:33:06.409Z,23.19
2019-01-12T01:34:06.399Z,23.08
2019-01-12T01:35:06.387Z,23.19
2019-01-12T01:36:06.375Z,23.31
2019-01-12T01:37:06.366Z,23.17
2019-01-12T01:38:06.363Z,23.29
2019-01-12T01:39:06.342Z,23.35
2019-01-12T01:40:06.330Z,23.23
2019-01-12T01:41:06.320Z,23.32
2019-01-12T01:42:06.311Z,23.27
2019-01-12T01:43:06.305Z,23.31
2019-01-12T01:44:06.285Z,23.31
2019-01-12T01:45:06.275Z,23.27
2019-01-12T01:46:06.264Z,23.29
2019-01-12T01:47:06.251Z,23.24
2019-01-12T01:48:06.249Z,23.17
2019-01-12T01:49:06.229Z,23.11
2019-01-12T01:50:06.216Z,23.20
2019-01-12T01:51:06.207Z,23.11
2019-01-12T01:52:06.195Z,23.11
2019-01-12T01:53:06.191Z,23.12
2019-01-12T01:54:06.176Z,23.01
2019-01-12T01:55:06.163Z,23.01
2019-01-12T01:56:06.150Z,23.05
2019-01-12T01:57:06.139Z,22.99
2019-01-12T01:58:06.135Z,22.94
2019-01-12T01:59:06.116Z,22.94
2019-01-12T02:00:06.105Z,22.93
2019-01-12T02:01:06.094Z,22.94
2019-01-12T02:02:06.082Z,22.89
2019-01-12T02:03:06.079Z,22.92
2019-01-12T02:04:06.059Z,22.94
2019-01-12T02:05:06.048Z,22.93
2019-01-12T02:06:06.041Z,22.94
2019-01-12T02:07:06.026Z,22.97
2019-01-12T02:08:06.023Z,22.90
2019-01-12T02:09:06.007Z,22.93
2019-01-12T02:10:05.992Z,23.01
2019-01-12T02:11:05.979Z,22.93
2019-01-12T02:12:06.033Z,22.97
2019-01-12T02:13:05.967Z,22.97
2019-01-12T02:14:05.948Z,22.93
2019-01-12T02:15:05.938Z,22.93
2019-01-12T02:16:05.924Z,23.05
2019-01-12T02:17:05.913Z,22.93
2019-01-12T02:18:05.914Z,22.97
2019-01-12T02:19:05.890Z,22.97
2019-01-12T02:20:05.882Z,22.86
2019-01-12T02:21:05.868Z,22.92
2019-01-12T02:22:05.856Z,22.92
2019-01-12T02:23:05.846Z,22.99
2019-01-12T02:24:05.841Z,22.89
2019-01-12T02:25:05.823Z,22.94
2019-01-12T02:26:05.813Z,22.94
2019-01-12T02:27:05.800Z,23.02
2019-01-12T02:28:05.791Z,23.01
2019-01-12T02:29:05.788Z,23.04
2019-01-12T02:30:05.782Z,22.99
2019-01-12T02:31:05.755Z,22.97
2019-01-12T02:32:05.772Z,23.02
2019-01-12T02:33:05.745Z,23.05
2019-01-12T02:34:05.731Z,22.97
2019-01-12T02:35:05.710Z,22.97
2019-01-12T02:36:05.698Z,22.99
2019-01-12T02:37:05.688Z,22.92
2019-01-12T02:38:05.678Z,22.93
2019-01-12T02:39:05.675Z,23.05
2019-01-12T02:40:05.662Z,23.04
2019-01-12T02:41:05.643Z,22.93
2019-01-12T02:42:05.630Z,23.11
2019-01-12T02:43:05.620Z,23.19
2019-01-12T02:44:05.616Z,23.08
2019-01-12T02:45:05.601Z,23.05
2019-01-12T02:46:05.589Z,23.02
2019-01-12T02:47:05.574Z,23.04
2019-01-12T02:48:05.566Z,23.04
2019-01-12T02:49:05.565Z,23.05
2019-01-12T02:50:05.545Z,22.96
2019-01-12T02:51:05.532Z,22.99
2019-01-12T02:52:05.522Z,23.02
2019-01-12T02:53:05.510Z,23.05
2019-01-12T02:54:05.503Z,22.96
2019-01-12T02:55:08.957Z,23.01
2019-01-12T02:56:05.490Z,22.99
2019-01-12T02:57:05.462Z,22.99
2019-01-12T02:58:05.451Z,23.04
2019-01-12T02:59:05.439Z,22.96
2019-01-12T03:00:05.438Z,22.96
2019-01-12T03:01:05.418Z,23.01
2019-01-12T03:02:05.405Z,23.02
2019-01-12T03:03:05.394Z,23.05
2019-01-12T03:04:05.383Z,22.84
2019-01-12T03:05:05.392Z,22.84
2019-01-12T03:06:05.363Z,22.92
2019-01-12T03:07:05.350Z,22.89
2019-01-12T03:08:05.338Z,22.87
2019-01-12T03:09:05.341Z,22.87
2019-01-12T03:10:05.315Z,22.94
2019-01-12T03:11:05.312Z,22.90
2019-01-12T03:12:05.296Z,22.87
2019-01-12T03:13:05.283Z,22.89
2019-01-12T03:14:05.277Z,23.02
2019-01-12T03:15:05.258Z,22.93
2019-01-12T03:16:05.265Z,22.97
2019-01-12T03:17:05.237Z,22.97
2019-01-12T03:18:05.227Z,22.92
2019-01-12T03:19:05.215Z,22.92
2019-01-12T03:20:05.203Z,22.93
2019-01-12T03:21:05.200Z,22.96
2019-01-12T03:22:05.195Z,22.93
2019-01-12T03:23:05.176Z,22.94
2019-01-12T03:24:05.159Z,22.89
2019-01-12T03:25:05.146Z,22.90
2019-01-12T03:26:05.235Z,23.05
2019-01-12T03:27:05.123Z,23.11
2019-01-12T03:28:05.111Z,23.12
2019-01-12T03:29:05.108Z,23.11
2019-01-12T03:30:05.093Z,23.12
2019-01-12T03:31:05.080Z,23.24
2019-01-12T03:32:05.077Z,23.39
2019-01-12T03:33:05.058Z,23.49
2019-01-12T03:34:05.043Z,23.53
2019-01-12T03:35:05.034Z,23.60
2019-01-12T03:36:05.025Z,23.65
2019-01-12T03:37:05.023Z,23.67
2019-01-12T03:38:05.006Z,23.80
2019-01-12T03:39:04.992Z,23.79
2019-01-12T03:40:04.976Z,23.79
2019-01-12T03:41:04.965Z,23.79
2019-01-12T03:42:04.960Z,23.80
2019-01-12T03:43:04.951Z,23.82
2019-01-12T03:44:04.932Z,23.85
2019-01-12T03:45:04.921Z,23.83
2019-01-12T03:46:04.909Z,23.86
2019-01-12T03:47:04.897Z,23.87
2019-01-12T03:48:04.897Z,23.95
2019-01-12T03:49:04.876Z,23.97
2019-01-12T03:50:04.864Z,23.95
2019-01-12T03:51:04.851Z,23.98
2019-01-12T03:52:04.842Z,24.02
2019-01-12T03:53:04.840Z,24.07
2019-01-12T03:54:04.820Z,24.07
2019-01-12T03:55:04.808Z,24.05
2019-01-12T03:56:04.804Z,24.12
2019-01-12T03:57:04.786Z,24.12
2019-01-12T03:58:04.784Z,24.08
2019-01-12T03:59:04.768Z,24.12
2019-01-12T04:00:04.754Z,24.07
2019-01-12T04:01:04.741Z,24.22
2019-01-12T04:02:04.728Z,24.13
2019-01-12T04:03:04.725Z,24.23
2019-01-12T04:04:04.709Z,24.20
2019-01-12T04:05:04.697Z,24.19
2019-01-12T04:06:04.687Z,24.16
2019-01-12T04:07:04.673Z,24.17
2019-01-12T04:08:04.670Z,24.17
2019-01-12T04:09:04.651Z,24.16
2019-01-12T04:10:04.646Z,24.14
2019-01-12T04:11:04.634Z,24.29
2019-01-12T04:12:04.618Z,24.16
2019-01-12T04:13:04.616Z,24.13
2019-01-12T04:14:04.594Z,24.14
2019-01-12T04:15:04.585Z,24.13
2019-01-12T04:16:04.573Z,24.26
2019-01-12T04:17:04.562Z,24.29
2019-01-12T04:18:04.565Z,24.26
2019-01-12T04:19:04.542Z,24.29
2019-01-12T04:20:04.529Z,24.16
2019-01-12T04:21:04.518Z,24.20
2019-01-12T04:22:04.507Z,24.20
2019-01-12T04:23:04.533Z,24.31
2019-01-12T04:24:04.495Z,24.31
2019-01-12T04:25:04.474Z,24.27
2019-01-12T04:26:04.463Z,24.16
2019-01-12T04:27:04.459Z,24.27
2019-01-12T04:28:04.440Z,24.26
2019-01-12T04:29:04.438Z,24.37
2019-01-12T04:30:04.417Z,24.32
2019-01-12T04:31:04.410Z,24.35
2019-01-12T04:32:04.400Z,24.38
2019-01-12T04:33:04.389Z,24.44
2019-01-12T04:34:04.382Z,24.38
2019-01-12T04:35:04.361Z,24.39
2019-01-12T04:36:04.351Z,24.41
2019-01-12T04:37:04.339Z,24.42
2019-01-12T04:38:04.329Z,24.39
2019-01-12T04:39:04.328Z,24.45
2019-01-12T04:40:04.306Z,24.41
2019-01-12T04:41:04.299Z,24.49
2019-01-12T04:42:04.289Z,24.39
2019-01-12T04:43:04.274Z,24.34
2019-01-12T04:44:04.269Z,24.34
2019-01-12T04:45:04.251Z,24.37
2019-01-12T04:46:04.240Z,24.41
2019-01-12T04:47:04.231Z,24.45
2019-01-12T04:48:04.218Z,24.37
2019-01-12T04:49:04.214Z,24.39
2019-01-12T04:50:04.193Z,24.39
2019-01-12T04:51:04.184Z,24.45
2019-01-12T04:52:04.172Z,24.49
2019-01-12T04:53:04.162Z,24.42
2019-01-12T04:54:04.166Z,24.49
2019-01-12T04:55:04.138Z,24.54
2019-01-12T04:56:04.128Z,24.42
2019-01-12T04:57:04.123Z,24.44
2019-01-12T04:58:04.105Z,24.38
2019-01-12T04:59:04.107Z,24.34
2019-01-12T05:00:04.082Z,24.27
2019-01-12T05:01:04.077Z,24.27
2019-01-12T05:02:04.062Z,24.26
2019-01-12T05:03:04.048Z,24.27
2019-01-12T05:04:04.039Z,24.24
2019-01-12T05:05:04.035Z,24.32
2019-01-12T05:06:04.017Z,24.37
2019-01-12T05:07:04.002Z,24.38
2019-01-12T05:08:03.993Z,24.41
2019-01-12T05:09:03.980Z,24.44
2019-01-12T05:10:03.986Z,24.39
2019-01-12T05:11:03.960Z,24.41
2019-01-12T05:12:03.949Z,24.41
2019-01-12T05:13:03.938Z,24.34
2019-01-12T05:14:03.928Z,24.45
2019-01-12T05:15:03.923Z,24.45
2019-01-12T05:16:03.906Z,24.42
2019-01-12T05:17:03.896Z,24.49
2019-01-12T05:18:03.881Z,24.49
2019-01-12T05:19:03.869Z,24.53
2019-01-12T05:20:03.869Z,24.47
2019-01-12T05:21:03.848Z,24.50
2019-01-12T05:22:03.839Z,24.57
2019-01-12T05:23:03.828Z,24.42
2019-01-12T05:24:03.820Z,24.47
2019-01-12T05:25:03.814Z,24.35
2019-01-12T05:26:03.827Z,24.34
2019-01-12T05:27:03.782Z,24.39
2019-01-12T05:28:03.770Z,24.38
2019-01-12T05:29:03.760Z,24.39
2019-01-12T05:30:03.757Z,24.44
2019-01-12T05:31:03.739Z,24.41
2019-01-12T05:32:03.727Z,24.39
2019-01-12T05:33:03.719Z,24.45
2019-01-12T05:34:03.706Z,24.54
2019-01-12T05:35:03.701Z,24.52
2019-01-12T05:36:03.682Z,24.57
2019-01-12T05:37:03.674Z,24.53
2019-01-12T05:38:03.660Z,24.57
2019-01-12T05:39:03.649Z,24.57
2019-01-12T05:40:03.644Z,24.54
2019-01-12T05:41:03.625Z,24.59
2019-01-12T05:42:03.616Z,24.57
2019-01-12T05:43:03.606Z,24.57
2019-01-12T05:44:03.593Z,24.50
2019-01-12T05:45:03.600Z,24.64
2019-01-12T05:46:03.570Z,24.69
2019-01-12T05:47:03.561Z,24.63
2019-01-12T05:48:03.548Z,24.69
2019-01-12T05:49:03.539Z,24.69
2019-01-12T05:50:03.530Z,24.69
2019-01-12T05:51:03.523Z,24.67
2019-01-12T05:52:03.503Z,24.67
2019-01-12T05:53:03.493Z,24.73
2019-01-12T05:54:03.482Z,24.76
2019-01-12T05:55:03.471Z,24.83
2019-01-12T05:56:03.472Z,24.83
2019-01-12T05:57:03.452Z,24.88
2019-01-12T05:58:03.439Z,24.83
2019-01-12T05:59:03.428Z,24.85
2019-01-12T06:00:03.415Z,24.80
2019-01-12T06:01:03.412Z,24.82
2019-01-12T06:02:03.393Z,24.88
2019-01-12T06:03:03.382Z,24.82
2019-01-12T06:04:03.373Z,24.88
2019-01-12T06:05:03.360Z,24.85
2019-01-12T06:06:03.359Z,24.88
2019-01-12T06:07:03.344Z,24.87
2019-01-12T06:08:03.327Z,24.85
2019-01-12T06:09:03.319Z,24.85
2019-01-12T06:10:03.305Z,24.90
2019-01-12T06:11:03.303Z,24.87
2019-01-12T06:12:03.285Z,24.87
2019-01-12T06:13:03.272Z,24.87
2019-01-12T06:14:03.260Z,24.85
2019-01-12T06:15:03.251Z,24.90
2019-01-12T06:16:03.249Z,24.88
2019-01-12T06:17:03.227Z,24.90
2019-01-12T06:18:03.219Z,24.97
2019-01-12T06:19:03.207Z,24.97
2019-01-12T06:20:03.196Z,24.90
2019-01-12T06:21:03.194Z,25.00
2019-01-12T06:22:03.173Z,24.97
2019-01-12T06:23:03.161Z,24.94
2019-01-12T06:24:03.151Z,24.95
2019-01-12T06:25:03.140Z,25.00
2019-01-12T06:26:04.090Z,24.97
2019-01-12T06:27:03.119Z,24.94
2019-01-12T06:28:03.109Z,24.92
2019-01-12T06:29:03.098Z,24.90
2019-01-12T06:30:03.084Z,25.00
2019-01-12T06:31:03.086Z,25.06
2019-01-12T06:32:03.065Z,25.16
2019-01-12T06:33:03.050Z,25.13
2019-01-12T06:34:03.040Z,25.12
2019-01-12T06:35:03.032Z,25.10
2019-01-12T06:36:03.022Z,25.09
2019-01-12T06:37:03.031Z,25.09
2019-01-12T06:38:03.000Z,25.13
2019-01-12T06:39:02.985Z,25.06
2019-01-12T06:40:02.972Z,25.12
2019-01-12T06:41:02.963Z,25.13
2019-01-12T06:42:02.960Z,25.10
2019-01-12T06:43:02.944Z,25.12
2019-01-12T06:44:02.931Z,25.10
2019-01-12T06:45:02.918Z,25.12
2019-01-12T06:46:02.909Z,25.07
2019-01-12T06:47:02.904Z,25.00
2019-01-12T06:48:02.885Z,24.97
2019-01-12T06:49:02.875Z,24.90
2019-01-12T06:50:02.867Z,24.95
2019-01-12T06:51:02.855Z,24.97
2019-01-12T06:52:02.850Z,24.88
2019-01-12T06:53:02.830Z,24.82
2019-01-12T06:54:02.820Z,24.71
2019-01-12T06:55:02.807Z,24.63
2019-01-12T06:56:02.798Z,24.54
2019-01-12T06:57:02.792Z,24.45
2019-01-12T06:58:02.776Z,24.42
2019-01-12T06:59:02.765Z,24.41
2019-01-12T07:00:02.757Z,24.41
2019-01-12T07:01:02.748Z,24.26
2019-01-12T07:02:02.742Z,24.19
2019-01-12T07:03:02.718Z,24.26
2019-01-12T07:04:02.710Z,24.20
2019-01-12T07:05:02.697Z,24.24
2019-01-12T07:06:02.684Z,24.14
2019-01-12T07:07:02.682Z,24.14
2019-01-12T07:08:02.662Z,24.19
2019-01-12T07:09:02.651Z,24.07
2019-01-12T07:10:02.641Z,24.12
2019-01-12T07:11:02.632Z,24.10
2019-01-12T07:12:02.627Z,24.10
2019-01-12T07:13:02.607Z,24.05
2019-01-12T07:14:02.596Z,24.05
2019-01-12T07:15:02.584Z,24.00
2019-01-12T07:16:02.574Z,24.04
2019-01-12T07:17:02.564Z,23.89
2019-01-12T07:18:08.677Z,23.98
2019-01-12T07:19:03.540Z,23.90
2019-01-12T07:20:02.531Z,23.97
2019-01-12T07:21:02.519Z,23.86
2019-01-12T07:22:02.506Z,23.82
2019-01-12T07:23:02.502Z,23.86
2019-01-12T07:24:02.485Z,23.90
2019-01-12T07:25:02.474Z,23.95
2019-01-12T07:26:02.464Z,23.77
2019-01-12T07:27:02.450Z,23.85
2019-01-12T07:28:02.448Z,23.71
2019-01-12T07:29:02.428Z,23.77
2019-01-12T07:30:02.425Z,23.79
2019-01-12T07:31:02.407Z,23.77
2019-01-12T07:32:02.395Z,23.79
2019-01-12T07:33:02.391Z,23.80
2019-01-12T07:34:02.376Z,23.83
2019-01-12T07:35:02.361Z,23.75
2019-01-12T07:36:02.349Z,23.71
2019-01-12T07:37:02.340Z,23.80
2019-01-12T07:38:02.339Z,23.68
2019-01-12T07:39:02.318Z,23.70
2019-01-12T07:40:02.306Z,23.70
2019-01-12T07:41:02.295Z,23.68
2019-01-12T07:42:02.284Z,23.71
2019-01-12T07:43:02.282Z,23.65
2019-01-12T07:44:02.264Z,23.70
2019-01-12T07:45:02.248Z,23.62
2019-01-12T07:46:02.239Z,23.58
2019-01-12T07:47:02.227Z,23.58
2019-01-12T07:48:02.223Z,23.65
2019-01-12T07:49:02.204Z,23.55
2019-01-12T07:50:02.250Z,23.53
2019-01-12T07:51:02.181Z,23.58
2019-01-12T07:52:02.170Z,23.58
2019-01-12T07:53:02.168Z,23.57
2019-01-12T07:54:02.147Z,23.52
2019-01-12T07:55:02.135Z,23.50
2019-01-12T07:56:02.127Z,23.52
2019-01-12T07:57:02.114Z,23.57
2019-01-12T07:58:02.121Z,23.55
2019-01-12T07:59:02.095Z,23.57
2019-01-12T08:00:02.323Z,23.50
2019-01-12T08:01:02.067Z,23.52
2019-01-12T08:02:02.058Z,23.42
2019-01-12T08:03:02.047Z,23.45
2019-01-12T08:04:02.044Z,23.43
2019-01-12T08:05:02.023Z,23.47
2019-01-12T08:06:02.012Z,23.40
2019-01-12T08:07:02.001Z,23.46
2019-01-12T08:08:01.991Z,23.47
2019-01-12T08:09:01.986Z,23.46
2019-01-12T08:10:01.966Z,23.40
2019-01-12T08:11:01.954Z,23.40
2019-01-12T08:12:01.946Z,23.42
2019-01-12T08:13:01.932Z,23.47
2019-01-12T08:14:01.931Z,23.43
2019-01-12T08:15:01.910Z,23.38
2019-01-12T08:16:01.899Z,23.38
2019-01-12T08:17:01.888Z,23.31
2019-01-12T08:18:01.877Z,23.29
2019-01-12T08:19:01.872Z,23.32
2019-01-12T08:20:01.853Z,23.32
2019-01-12T08:21:01.844Z,23.35
2019-01-12T08:22:01.832Z,23.34
2019-01-12T08:23:01.819Z,23.32
2019-01-12T08:24:01.816Z,23.38
2019-01-12T08:25:01.799Z,23.34
2019-01-12T08:26:01.787Z,23.29
2019-01-12T08:27:01.774Z,23.38
2019-01-12T08:28:01.763Z,23.38
2019-01-12T08:29:01.759Z,23.39
2019-01-12T08:30:01.741Z,23.32
2019-01-12T08:31:01.729Z,23.31
2019-01-12T08:32:01.720Z,23.34
2019-01-12T08:33:01.706Z,23.38
2019-01-12T08:34:01.709Z,23.29
2019-01-12T08:35:01.686Z,23.35
2019-01-12T08:36:01.675Z,23.31
2019-01-12T08:37:01.665Z,23.29
2019-01-12T08:38:01.652Z,23.26
2019-01-12T08:39:01.650Z,23.26
2019-01-12T08:40:01.629Z,23.24
2019-01-12T08:41:01.617Z,23.22
2019-01-12T08:42:01.606Z,23.27
2019-01-12T08:43:01.596Z,23.24
2019-01-12T08:44:01.596Z,23.17
2019-01-12T08:45:01.573Z,23.22
2019-01-12T08:46:01.561Z,23.31
2019-01-12T08:47:01.549Z,23.15
2019-01-12T08:48:01.539Z,23.19
2019-01-12T08:49:01.527Z,23.07
2019-01-12T08:50:01.525Z,23.11
2019-01-12T08:51:01.505Z,23.09
2019-01-12T08:52:01.494Z,23.11
2019-01-12T08:53:01.501Z,23.07
2019-01-12T08:54:01.471Z,23.08
2019-01-12T08:55:01.468Z,23.12
2019-01-12T08:56:01.449Z,22.94
2019-01-12T08:57:01.437Z,22.94
2019-01-12T08:58:01.427Z,22.94
2019-01-12T08:59:01.414Z,22.93
2019-01-12T09:00:01.413Z,22.90
2019-01-12T09:01:01.390Z,22.92
2019-01-12T09:02:01.381Z,22.86
2019-01-12T09:03:01.370Z,22.87
2019-01-12T09:04:01.357Z,22.82
2019-01-12T09:05:01.357Z,22.86
2019-01-12T09:06:01.334Z,22.87
2019-01-12T09:07:01.323Z,22.89
2019-01-12T09:08:01.314Z,22.78
2019-01-12T09:09:01.302Z,22.84
2019-01-12T09:10:01.300Z,22.80
2019-01-12T09:11:01.280Z,22.77
2019-01-12T09:12:01.267Z,22.74
2019-01-12T09:13:01.258Z,22.77
2019-01-12T09:14:01.246Z,22.83
2019-01-12T09:15:01.242Z,22.84
2019-01-12T09:16:01.222Z,22.83
2019-01-12T09:17:01.217Z,22.83
2019-01-12T09:18:01.205Z,22.89
2019-01-12T09:19:01.190Z,22.82
2019-01-12T09:20:01.185Z,22.86
2019-01-12T09:21:01.167Z,22.87
2019-01-12T09:22:01.159Z,22.86
2019-01-12T09:23:01.145Z,22.89
2019-01-12T09:24:01.133Z,22.87
2019-01-12T09:25:01.196Z,22.87
2019-01-12T09:26:01.110Z,22.78
2019-01-12T09:27:01.098Z,22.83
2019-01-12T09:28:01.088Z,22.84
2019-01-12T09:29:01.075Z,22.80
2019-01-12T09:30:01.064Z,22.90
2019-01-12T09:31:01.064Z,22.78
2019-01-12T09:32:01.042Z,22.80
2019-01-12T09:33:01.037Z,22.78
2019-01-12T09:34:01.018Z,22.77
2019-01-12T09:35:01.008Z,22.84
2019-01-12T09:36:01.005Z,22.78
2019-01-12T09:37:00.987Z,22.80
2019-01-12T09:38:00.976Z,22.83
2019-01-12T09:39:00.964Z,22.84
2019-01-12T09:40:00.955Z,22.77
2019-01-12T09:41:00.949Z,22.74
2019-01-12T09:42:00.928Z,22.77
2019-01-12T09:43:00.917Z,22.65
2019-01-12T09:44:00.909Z,22.72
2019-01-12T09:45:00.905Z,22.77
2019-01-12T09:46:00.894Z,22.69
2019-01-12T09:47:00.872Z,22.68
2019-01-12T09:48:00.863Z,22.65
2019-01-12T09:49:00.850Z,22.77
2019-01-12T09:50:00.841Z,22.62
2019-01-12T09:51:00.837Z,22.64
2019-01-12T09:52:00.817Z,22.69
2019-01-12T09:53:00.806Z,22.75
2019-01-12T09:54:00.796Z,22.59
2019-01-12T09:55:00.782Z,22.59
2019-01-12T09:56:00.782Z,22.71
2019-01-12T09:57:00.765Z,22.60
2019-01-12T09:58:00.749Z,22.62
2019-01-12T09:59:00.739Z,22.62
2019-01-12T10:00:00.726Z,22.60
2019-01-12T10:01:00.734Z,22.59
2019-01-12T10:02:00.706Z,22.74
2019-01-12T10:03:00.692Z,22.52
2019-01-12T10:04:00.680Z,22.59
2019-01-12T10:05:00.671Z,22.67
2019-01-12T10:06:00.659Z,22.69
2019-01-12T10:07:00.656Z,22.62
2019-01-12T10:08:00.637Z,22.59
2019-01-12T10:09:00.630Z,22.62
2019-01-12T10:10:00.622Z,22.69
2019-01-12T10:11:00.604Z,22.60
2019-01-12T10:12:00.599Z,22.62
2019-01-12T10:13:00.580Z,22.56
2019-01-12T10:14:00.569Z,22.59
2019-01-12T10:15:00.558Z,22.57
2019-01-12T10:16:00.546Z,22.62
2019-01-12T10:17:00.547Z,22.56
2019-01-12T10:18:00.525Z,22.57
2019-01-12T10:19:00.514Z,22.57
2019-01-12T10:20:00.528Z,22.53
2019-01-12T10:21:00.493Z,22.56
2019-01-12T10:22:00.490Z,22.65
2019-01-12T10:23:00.469Z,22.62
2019-01-12T10:24:00.457Z,22.52
2019-01-12T10:25:00.445Z,22.64
2019-01-12T10:26:00.434Z,22.65
2019-01-12T10:27:00.431Z,22.60
2019-01-12T10:28:00.411Z,22.64
2019-01-12T10:29:00.403Z,22.50
2019-01-12T10:30:00.391Z,22.54
2019-01-12T10:31:00.378Z,22.53
2019-01-12T10:32:00.377Z,22.59
2019-01-12T10:33:00.359Z,22.53
2019-01-12T10:34:00.345Z,22.59
2019-01-12T10:35:00.336Z,22.57
2019-01-12T10:36:00.324Z,22.56
2019-01-12T10:37:00.323Z,22.56
2019-01-12T10:38:00.299Z,22.62
2019-01-12T10:39:00.291Z,22.65
2019-01-12T10:40:00.276Z,22.59
2019-01-12T10:41:00.267Z,22.57
2019-01-12T10:42:00.274Z,22.59
2019-01-12T10:43:00.245Z,22.60
2019-01-12T10:44:00.235Z,22.49
2019-01-12T10:45:00.220Z,22.57
2019-01-12T10:46:00.209Z,22.46
2019-01-12T10:47:00.200Z,22.43
2019-01-12T10:48:00.198Z,22.54
2019-01-12T10:49:00.176Z,22.49
2019-01-12T10:50:01.586Z,22.49
2019-01-12T10:51:00.157Z,22.59
2019-01-12T10:52:00.145Z,22.52
2019-01-12T10:53:00.146Z,22.54
2019-01-12T10:54:00.120Z,22.50
2019-01-12T10:55:00.175Z,22.53
2019-01-12T10:56:00.098Z,22.56
2019-01-12T10:57:05.483Z,22.49
2019-01-12T10:58:01.087Z,22.59
2019-01-12T10:59:00.064Z,22.46
2019-01-12T11:00:00.093Z,22.44
2019-01-12T11:01:00.043Z,22.56
2019-01-12T11:02:00.031Z,22.57
2019-01-12T11:03:00.031Z,22.54
2019-01-12T11:04:00.008Z,22.52
2019-01-12T11:04:59.997Z,22.50
2019-01-12T11:05:59.986Z,22.57
2019-01-12T11:06:59.976Z,22.57
2019-01-12T11:07:59.974Z,22.47
2019-01-12T11:08:59.954Z,22.50
2019-01-12T11:10:04.035Z,22.46
2019-01-12T11:10:59.929Z,22.49
2019-01-12T11:11:59.918Z,22.46
2019-01-12T11:12:59.916Z,22.52
2019-01-12T11:13:59.899Z,22.47
2019-01-12T11:14:59.887Z,22.39
2019-01-12T11:15:59.875Z,22.44
2019-01-12T11:16:59.862Z,22.46
2019-01-12T11:17:59.894Z,22.52
2019-01-12T11:18:59.847Z,22.46
2019-01-12T11:19:59.828Z,22.54
2019-01-12T11:20:59.822Z,22.49
2019-01-12T11:21:59.812Z,22.41
2019-01-12T11:22:59.821Z,22.46
2019-01-12T11:23:59.786Z,22.44
2019-01-12T11:24:59.772Z,22.39
2019-01-12T11:25:59.763Z,22.38
2019-01-12T11:26:59.750Z,22.44
2019-01-12T11:27:59.743Z,22.52
2019-01-12T11:28:59.743Z,22.44
2019-01-12T11:29:59.720Z,22.52
2019-01-12T11:30:59.710Z,22.50
2019-01-12T11:31:59.700Z,22.50
2019-01-12T11:32:59.687Z,22.43
2019-01-12T11:33:59.691Z,22.38
2019-01-12T11:34:59.660Z,22.54
2019-01-12T11:35:59.650Z,22.52
2019-01-12T11:36:59.637Z,22.54
2019-01-12T11:37:59.633Z,22.53
2019-01-12T11:38:59.630Z,22.53
2019-01-12T11:39:59.607Z,22.41
2019-01-12T11:40:59.599Z,22.53
2019-01-12T11:41:59.582Z,22.47
2019-01-12T11:42:59.573Z,22.46
2019-01-12T11:43:59.571Z,22.57
2019-01-12T11:44:59.549Z,22.54
2019-01-12T11:45:59.541Z,22.52
2019-01-12T11:46:59.525Z,22.46
2019-01-12T11:47:59.514Z,22.56
2019-01-12T11:48:59.512Z,22.56
2019-01-12T11:49:59.496Z,22.54
2019-01-12T11:50:59.481Z,22.41
2019-01-12T11:51:59.470Z,22.53
2019-01-12T11:52:59.460Z,22.57
2019-01-12T11:53:59.457Z,22.47
2019-01-12T11:54:59.437Z,22.46
2019-01-12T11:55:59.426Z,22.38
2019-01-12T11:56:59.414Z,22.44
2019-01-12T11:57:59.405Z,22.01
2019-01-12T11:58:59.400Z,21.85
2019-01-12T11:59:59.383Z,21.61
2019-01-12T12:00:59.370Z,21.56
2019-01-12T12:01:59.359Z,21.45
2019-01-12T12:02:59.372Z,21.23
2019-01-12T12:03:59.343Z,21.24
2019-01-12T12:04:59.323Z,21.34
2019-01-12T12:05:59.314Z,21.50
2019-01-12T12:06:59.302Z,21.59
2019-01-12T12:07:59.289Z,21.71
2019-01-12T12:08:59.307Z,21.81
2019-01-12T12:09:59.269Z,21.97
2019-01-12T12:10:59.257Z,22.01
2019-01-12T12:11:59.245Z,22.12
2019-01-12T12:12:59.233Z,22.14
2019-01-12T12:13:59.222Z,22.16
2019-01-12T12:14:59.219Z,22.14
2019-01-12T12:15:59.202Z,22.04
2019-01-12T12:16:59.191Z,22.06
2019-01-12T12:17:59.177Z,22.16
2019-01-12T12:18:59.169Z,22.16
2019-01-12T12:19:59.166Z,22.20
2019-01-12T12:20:59.144Z,22.17
2019-01-12T12:21:59.134Z,22.28
2019-01-12T12:22:59.122Z,22.27
2019-01-12T12:23:59.116Z,22.29
2019-01-12T12:24:59.107Z,22.31
2019-01-12T12:25:59.087Z,22.32
2019-01-12T12:26:59.078Z,22.34
2019-01-12T12:27:59.110Z,22.32
2019-01-12T12:28:59.058Z,22.38
2019-01-12T12:29:59.053Z,22.32
2019-01-12T12:30:59.033Z,22.35
2019-01-12T12:31:59.023Z,22.29
2019-01-12T12:32:59.011Z,22.41
2019-01-12T12:33:58.999Z,22.35
2019-01-12T12:34:58.995Z,22.37
2019-01-12T12:35:58.977Z,22.32
2019-01-12T12:36:58.964Z,22.43
2019-01-12T12:37:58.954Z,22.39
2019-01-12T12:38:58.942Z,22.34
2019-01-12T12:39:58.943Z,22.35
2019-01-12T12:40:58.920Z,22.46
2019-01-12T12:41:58.910Z,22.39
2019-01-12T12:42:58.898Z,22.47
2019-01-12T12:43:58.887Z,22.56
2019-01-12T12:44:58.883Z,22.57
2019-01-12T12:45:58.875Z,22.54
2019-01-12T12:46:58.854Z,22.50
2019-01-12T12:47:58.846Z,22.68
2019-01-12T12:48:58.831Z,22.71
2019-01-12T12:49:58.830Z,22.60
2019-01-12T12:50:58.809Z,22.64
2019-01-12T12:51:58.796Z,22.65